Terminal Aerodrome Forecast
Issued by NWS Sioux Falls, SD

Home | Current Version | Previous Version | Text Only | Print | Product List | Glossary On
Versions: 1 2 3 4 5 6 7 8 9 10 11 12 13 14 15
000
FTUS43 KFSD 221130
TAFHON
TAF
KHON 221130Z 2212/2312 16004KT 5SM BR SKC
     FM221400 16006KT P6SM SKC
     FM221700 16010KT P6SM SCT250
     FM230300 16006KT P6SM BKN120
     FM231000 27007KT P6SM BKN050=

USA.gov is the U.S. government's official web portal to all federal, state and local government web resources and services.